createdAt,value
2022-11-05T00:00:19.053Z,5.89
2022-11-05T00:03:04.374Z,5.77
2022-11-05T00:05:50.076Z,5.75
2022-11-05T00:08:35.341Z,5.72
2022-11-05T00:11:01.940Z,5.73
2022-11-05T00:13:46.977Z,5.59
2022-11-05T00:16:31.844Z,5.63
2022-11-05T00:19:07.432Z,5.58
2022-11-05T00:21:53.300Z,5.56
2022-11-05T00:24:38.598Z,5.57
2022-11-05T00:27:05.607Z,5.50
2022-11-05T00:29:32.258Z,5.50
2022-11-05T00:31:58.825Z,5.39
2022-11-05T00:34:25.292Z,5.39
2022-11-05T00:36:51.815Z,5.36
2022-11-05T00:39:18.302Z,5.32
2022-11-05T00:42:04.762Z,5.36
2022-11-05T00:44:50.220Z,5.30
2022-11-05T00:47:35.451Z,5.34
2022-11-05T00:50:01.962Z,5.32
2022-11-05T00:52:46.869Z,5.30
2022-11-05T00:55:13.380Z,5.30
2022-11-05T00:57:39.867Z,5.32
2022-11-05T01:00:06.875Z,5.24
2022-11-05T01:02:33.561Z,5.18
2022-11-05T01:05:00.188Z,5.11
2022-11-05T01:07:26.693Z,5.08
2022-11-05T01:09:53.197Z,5.03
2022-11-05T01:12:19.653Z,5.00
2022-11-05T01:14:46.133Z,5.07
2022-11-05T01:17:12.634Z,5.07
2022-11-05T01:19:39.483Z,5.03
2022-11-05T01:22:06.010Z,5.00
2022-11-05T01:24:32.571Z,5.01
2022-11-05T01:26:59.135Z,5.02
2022-11-05T01:29:25.678Z,5.05
2022-11-05T01:31:52.219Z,5.05
2022-11-05T01:34:18.734Z,5.04
2022-11-05T01:36:45.240Z,5.05
2022-11-05T01:39:11.751Z,5.03
2022-11-05T01:41:38.322Z,4.91
2022-11-05T01:44:04.986Z,4.94
2022-11-05T01:46:36.847Z,5.00
2022-11-05T01:49:12.635Z,4.95
2022-11-05T01:51:40.112Z,5.03
2022-11-05T01:54:11.760Z,4.90
2022-11-05T01:56:45.107Z,4.98
2022-11-05T01:59:21.415Z,4.85
2022-11-05T02:01:48.141Z,4.88
2022-11-05T02:04:24.610Z,4.86
2022-11-05T02:06:51.180Z,4.81
2022-11-05T02:09:27.722Z,4.78
2022-11-05T02:11:54.259Z,4.72
2022-11-05T02:14:20.750Z,4.77
2022-11-05T02:16:57.990Z,4.62
2022-11-05T02:19:55.489Z,4.69
2022-11-05T02:22:44.039Z,4.69
2022-11-05T02:25:37.386Z,4.62
2022-11-05T02:28:22.000Z,4.71
2022-11-05T02:30:56.657Z,4.64
2022-11-05T02:33:47.880Z,4.80
2022-11-05T02:36:39.888Z,4.77
2022-11-05T02:39:24.950Z,4.80
2022-11-05T02:42:05.134Z,4.81
2022-11-05T02:44:34.609Z,4.75
2022-11-05T02:47:24.141Z,4.84
2022-11-05T02:50:05.930Z,4.75
2022-11-05T02:52:40.721Z,4.83
2022-11-05T02:55:22.986Z,4.83
2022-11-05T02:57:49.642Z,4.88
2022-11-05T03:00:37.894Z,4.75
2022-11-05T03:03:08.840Z,4.69
2022-11-05T03:05:55.539Z,4.79
2022-11-05T03:08:34.891Z,4.90
2022-11-05T03:11:12.771Z,5.01
2022-11-05T03:13:59.387Z,5.20
2022-11-05T03:16:40.368Z,5.19
2022-11-05T03:19:25.015Z,5.29
2022-11-05T03:21:57.899Z,5.35
2022-11-05T03:24:29.502Z,5.26
2022-11-05T03:27:00.758Z,5.06
2022-11-05T03:29:36.177Z,5.17
2022-11-05T03:32:05.082Z,5.20
2022-11-05T03:34:36.784Z,5.21
2022-11-05T03:37:05.285Z,5.00
2022-11-05T03:39:37.339Z,5.19
2022-11-05T03:42:07.352Z,5.13
2022-11-05T03:44:39.027Z,5.04
2022-11-05T03:47:19.360Z,5.11
2022-11-05T03:50:04.733Z,5.24
2022-11-05T03:52:38.091Z,5.07
2022-11-05T03:55:05.678Z,5.28
2022-11-05T03:57:37.211Z,5.30
2022-11-05T04:00:08.599Z,5.26
2022-11-05T04:02:35.248Z,5.29
2022-11-05T04:05:01.898Z,5.28
2022-11-05T04:07:47.096Z,5.28
2022-11-05T04:10:32.216Z,5.25
2022-11-05T04:13:17.493Z,5.19
2022-11-05T04:16:02.296Z,5.31
2022-11-05T04:18:28.791Z,5.42
2022-11-05T04:21:16.585Z,5.42
2022-11-05T04:24:01.629Z,5.25
2022-11-05T04:26:28.141Z,5.46
2022-11-05T04:29:13.043Z,5.60
2022-11-05T04:31:39.751Z,5.58
2022-11-05T04:34:06.304Z,5.58
2022-11-05T04:36:33.058Z,5.57
2022-11-05T04:38:59.616Z,5.60
2022-11-05T04:41:26.257Z,5.52
2022-11-05T04:43:52.768Z,5.57
2022-11-05T04:46:19.326Z,5.48
2022-11-05T04:48:45.920Z,5.53
2022-11-05T04:51:12.424Z,5.51
2022-11-05T04:53:38.960Z,5.55
2022-11-05T04:56:15.175Z,5.47
2022-11-05T04:58:42.877Z,5.44
2022-11-05T05:01:13.723Z,5.47
2022-11-05T05:03:40.371Z,5.47
2022-11-05T05:06:07.500Z,5.38
2022-11-05T05:08:34.167Z,5.18
2022-11-05T05:11:02.871Z,5.31
2022-11-05T05:13:29.372Z,5.22
2022-11-05T05:15:55.942Z,5.20
2022-11-05T05:18:22.420Z,5.11
2022-11-05T05:21:07.392Z,5.14
2022-11-05T05:23:33.887Z,5.18
2022-11-05T05:26:00.576Z,5.16
2022-11-05T05:28:28.112Z,5.14
2022-11-05T05:30:58.968Z,5.15
2022-11-05T05:33:25.900Z,5.09
2022-11-05T05:35:52.467Z,5.19
2022-11-05T05:38:19.195Z,5.09
2022-11-05T05:40:45.816Z,5.10
2022-11-05T05:43:12.576Z,5.14
2022-11-05T05:45:39.288Z,5.09
2022-11-05T05:48:06.006Z,5.15
2022-11-05T05:50:32.565Z,5.16
2022-11-05T05:52:59.038Z,5.21
2022-11-05T05:55:25.736Z,5.15
2022-11-05T05:57:52.226Z,5.22
2022-11-05T06:00:21.922Z,5.18
2022-11-05T06:02:48.540Z,5.18
2022-11-05T06:05:15.201Z,5.06
2022-11-05T06:07:41.695Z,5.03
2022-11-05T06:10:08.700Z,5.14
2022-11-05T06:12:35.217Z,5.08
2022-11-05T06:15:01.811Z,5.12
2022-11-05T06:17:28.363Z,5.22
2022-11-05T06:19:54.880Z,5.10
2022-11-05T06:22:21.422Z,5.21
2022-11-05T06:24:47.907Z,5.24
2022-11-05T06:27:14.382Z,5.16
2022-11-05T06:29:40.837Z,5.25
2022-11-05T06:32:07.328Z,5.15
2022-11-05T06:34:33.970Z,5.20
2022-11-05T06:37:00.452Z,4.96
2022-11-05T06:39:26.943Z,5.03
2022-11-05T06:44:40.000Z,5.11
2022-11-05T06:47:06.804Z,5.11
2022-11-05T06:49:33.316Z,4.96
2022-11-05T06:51:59.868Z,5.01
2022-11-05T06:54:26.420Z,4.96
2022-11-05T06:56:52.940Z,4.93
2022-11-05T06:59:19.473Z,4.99
2022-11-05T07:01:46.094Z,5.07
2022-11-05T07:04:12.780Z,4.99
2022-11-05T07:06:39.252Z,4.92
2022-11-05T07:09:05.743Z,4.89
2022-11-05T07:11:32.259Z,4.85
2022-11-05T07:13:58.960Z,4.89
2022-11-05T07:16:25.559Z,4.98
2022-11-05T07:18:52.860Z,4.90
2022-11-05T07:21:19.784Z,4.89
2022-11-05T07:23:46.290Z,5.05
2022-11-05T07:26:12.782Z,5.05
2022-11-05T07:28:39.283Z,4.96
2022-11-05T07:31:06.027Z,4.97
2022-11-05T07:33:36.548Z,5.02
2022-11-05T07:36:03.731Z,5.05
2022-11-05T07:38:30.292Z,5.09
2022-11-05T07:40:59.257Z,5.11
2022-11-05T07:43:25.845Z,5.12
2022-11-05T07:45:52.410Z,5.16
2022-11-05T07:48:18.989Z,5.13
2022-11-05T07:50:45.691Z,5.26
2022-11-05T07:53:14.438Z,5.39
2022-11-05T07:55:41.390Z,5.29
2022-11-05T07:58:07.976Z,5.42
2022-11-05T08:00:34.602Z,5.51
2022-11-05T08:03:08.544Z,5.59
2022-11-05T08:05:37.514Z,5.49
2022-11-05T08:08:05.050Z,5.71
2022-11-05T08:10:31.668Z,5.73
2022-11-05T08:12:59.648Z,5.81
2022-11-05T08:15:26.324Z,5.84
2022-11-05T08:18:16.959Z,5.94
2022-11-05T08:20:44.960Z,5.98
2022-11-05T08:23:11.908Z,6.04
2022-11-05T08:25:39.805Z,6.15
2022-11-05T08:28:10.197Z,6.26
2022-11-05T08:30:36.953Z,6.36
2022-11-05T08:33:12.783Z,6.50
2022-11-05T08:35:40.655Z,6.52
2022-11-05T08:38:10.045Z,6.73
2022-11-05T08:40:37.175Z,6.96
2022-11-05T08:43:06.700Z,7.12
2022-11-05T08:45:34.909Z,7.25
2022-11-05T08:48:15.416Z,7.52
2022-11-05T08:50:42.895Z,7.47
2022-11-05T08:53:10.607Z,7.66
2022-11-05T08:55:38.518Z,7.84
2022-11-05T08:58:07.598Z,7.83
2022-11-05T09:00:36.825Z,7.97
2022-11-05T09:03:05.368Z,8.05
2022-11-05T09:05:38.196Z,8.16
2022-11-05T09:08:10.448Z,8.29
2022-11-05T09:10:37.482Z,8.20
2022-11-05T09:13:05.035Z,8.19
2022-11-05T09:15:32.206Z,8.19
2022-11-05T09:17:59.294Z,8.18
2022-11-05T09:20:26.103Z,8.23
2022-11-05T09:22:53.014Z,8.23
2022-11-05T09:25:19.815Z,8.27
2022-11-05T09:27:46.425Z,8.26
2022-11-05T09:30:13.990Z,8.34
2022-11-05T09:32:40.921Z,8.27
2022-11-05T09:35:08.414Z,8.36
2022-11-05T09:37:36.241Z,8.44
2022-11-05T09:40:02.879Z,8.49
2022-11-05T09:42:35.414Z,8.53
2022-11-05T09:45:23.826Z,8.51
2022-11-05T09:47:57.504Z,8.49
2022-11-05T09:50:37.764Z,8.47
2022-11-05T09:53:05.160Z,8.74
2022-11-05T09:55:41.313Z,8.73
2022-11-05T09:58:23.182Z,8.68
2022-11-05T10:00:52.992Z,8.77
2022-11-05T10:03:24.891Z,9.00
2022-11-05T10:05:53.766Z,9.08
2022-11-05T10:08:22.748Z,8.91
2022-11-05T10:10:53.600Z,8.92
2022-11-05T10:13:37.976Z,9.04
2022-11-05T10:16:21.768Z,9.02
2022-11-05T10:18:54.046Z,9.08
2022-11-05T10:21:37.758Z,9.06
2022-11-05T10:24:30.267Z,8.99
2022-11-05T10:26:57.937Z,9.23
2022-11-05T10:29:33.122Z,9.32
2022-11-05T10:32:03.223Z,9.24
2022-11-05T10:34:34.266Z,9.32
2022-11-05T10:37:01.063Z,9.46
2022-11-05T10:39:29.046Z,9.65
2022-11-05T10:42:19.602Z,9.84
2022-11-05T10:45:22.995Z,9.84
2022-11-05T10:48:19.079Z,9.78
2022-11-05T10:50:45.864Z,9.66
2022-11-05T10:53:19.863Z,9.71
2022-11-05T10:55:49.354Z,10.03
2022-11-05T10:58:15.779Z,10.13
2022-11-05T11:00:52.258Z,10.32
2022-11-05T11:03:43.614Z,10.05
2022-11-05T11:06:28.304Z,9.87
2022-11-05T11:09:03.682Z,9.92
2022-11-05T11:11:37.679Z,10.16
2022-11-05T11:14:11.716Z,10.15
2022-11-05T11:16:50.432Z,10.04
2022-11-05T11:19:34.350Z,10.15
2022-11-05T11:22:03.594Z,10.14
2022-11-05T11:24:33.561Z,10.11
2022-11-05T11:27:05.748Z,9.97
2022-11-05T11:29:36.198Z,10.10
2022-11-05T11:32:02.882Z,10.31
2022-11-05T11:34:39.236Z,10.41
2022-11-05T11:37:12.938Z,10.27
2022-11-05T11:39:50.660Z,10.34
2022-11-05T11:42:49.103Z,10.52
2022-11-05T11:45:36.498Z,10.51
2022-11-05T11:48:06.496Z,10.50
2022-11-05T11:50:39.030Z,10.40
2022-11-05T11:53:20.600Z,10.56
2022-11-05T11:56:05.463Z,10.48
2022-11-05T11:58:42.081Z,10.40
2022-11-05T12:01:20.844Z,10.69
2022-11-05T12:04:15.316Z,10.63
2022-11-05T12:06:50.490Z,10.70
2022-11-05T12:09:50.467Z,10.68
2022-11-05T12:12:21.112Z,10.59
2022-11-05T12:14:56.652Z,10.62
2022-11-05T12:17:26.577Z,10.49
2022-11-05T12:20:13.965Z,10.48
2022-11-05T12:22:46.447Z,10.53
2022-11-05T12:25:21.866Z,10.49
2022-11-05T12:27:57.258Z,10.48
2022-11-05T12:30:24.093Z,10.53
2022-11-05T12:33:02.838Z,10.62
2022-11-05T12:35:56.463Z,10.51
2022-11-05T12:38:29.997Z,10.55
2022-11-05T12:41:24.992Z,10.63
2022-11-05T12:44:10.131Z,10.71
2022-11-05T12:46:54.567Z,10.57
2022-11-05T12:49:30.902Z,10.51
2022-11-05T12:52:23.195Z,10.65
2022-11-05T12:55:08.500Z,10.55
2022-11-05T12:57:40.254Z,10.68
2022-11-05T13:00:20.401Z,10.64
2022-11-05T13:03:06.904Z,10.61
2022-11-05T13:05:44.461Z,10.72
2022-11-05T13:08:25.432Z,10.71
2022-11-05T13:10:53.954Z,10.73
2022-11-05T13:13:30.953Z,10.61
2022-11-05T13:16:05.038Z,10.71
2022-11-05T13:18:47.145Z,10.68
2022-11-05T13:21:15.776Z,10.89
2022-11-05T13:24:11.043Z,10.62
2022-11-05T13:26:51.081Z,10.74
2022-11-05T13:29:27.357Z,10.84
2022-11-05T13:32:02.165Z,10.65
2022-11-05T13:34:33.464Z,10.65
2022-11-05T13:37:24.062Z,10.60
2022-11-05T13:40:03.557Z,10.64
2022-11-05T13:43:01.161Z,10.66
2022-11-05T13:45:42.963Z,10.72
2022-11-05T13:48:31.284Z,10.85
2022-11-05T13:51:12.686Z,10.94
2022-11-05T13:53:49.853Z,10.82
2022-11-05T13:56:44.169Z,10.84
2022-11-05T13:59:22.507Z,10.72
2022-11-05T14:01:58.508Z,10.69
2022-11-05T14:04:31.316Z,10.73
2022-11-05T14:07:16.769Z,10.60
2022-11-05T14:09:44.580Z,10.57
2022-11-05T14:12:26.825Z,10.68
2022-11-05T14:15:00.498Z,10.65
2022-11-05T14:17:32.199Z,10.70
2022-11-05T14:20:04.756Z,10.71
2022-11-05T14:22:31.205Z,10.65
2022-11-05T14:24:59.359Z,10.60
2022-11-05T14:27:28.850Z,10.57
2022-11-05T14:29:55.930Z,10.51
2022-11-05T14:32:24.943Z,10.55
2022-11-05T14:35:15.604Z,10.69
2022-11-05T14:37:53.247Z,10.51
2022-11-05T14:40:42.789Z,10.51
2022-11-05T14:43:24.797Z,10.47
2022-11-05T14:46:01.339Z,10.53
2022-11-05T14:48:48.646Z,10.44
2022-11-05T14:51:33.459Z,10.38
2022-11-05T14:53:59.967Z,10.34
2022-11-05T14:56:26.549Z,10.41
2022-11-05T14:59:24.818Z,10.42
2022-11-05T15:01:56.404Z,10.39
2022-11-05T15:04:36.382Z,10.38
2022-11-05T15:07:03.026Z,10.39
2022-11-05T15:09:38.411Z,10.38
2022-11-05T15:12:16.532Z,10.29
2022-11-05T15:14:59.291Z,10.26
2022-11-05T15:17:45.901Z,10.25
2022-11-05T15:20:41.475Z,10.19
2022-11-05T15:23:13.527Z,10.17
2022-11-05T15:25:55.520Z,10.10
2022-11-05T15:28:27.221Z,10.17
2022-11-05T15:31:03.241Z,10.07
2022-11-05T15:33:30.670Z,10.09
2022-11-05T15:36:28.316Z,10.02
2022-11-05T15:39:27.883Z,10.07
2022-11-05T15:41:43.021Z,10.02
2022-11-05T15:44:28.971Z,9.91
2022-11-05T15:47:14.114Z,10.00
2022-11-05T15:49:43.491Z,9.99
2022-11-05T15:52:15.332Z,9.88
2022-11-05T15:54:42.951Z,9.87
2022-11-05T15:57:28.908Z,9.75
2022-11-05T15:59:55.444Z,9.82
2022-11-05T16:02:32.616Z,9.81
2022-11-05T16:05:01.593Z,9.73
2022-11-05T16:07:28.794Z,9.78
2022-11-05T16:09:58.324Z,9.66
2022-11-05T16:12:34.093Z,9.76
2022-11-05T16:15:04.684Z,9.76
2022-11-05T16:17:40.278Z,9.72
2022-11-05T16:20:32.050Z,9.63
2022-11-05T16:23:01.932Z,9.68
2022-11-05T16:25:31.103Z,9.65
2022-11-05T16:27:59.517Z,9.57
2022-11-05T16:30:26.625Z,9.68
2022-11-05T16:32:53.676Z,9.71
2022-11-05T16:35:25.017Z,9.70
2022-11-05T16:37:52.771Z,9.68
2022-11-05T16:40:24.566Z,9.63
2022-11-05T16:42:53.787Z,9.65
2022-11-05T16:45:23.700Z,9.62
2022-11-05T16:47:50.770Z,9.61
2022-11-05T16:50:27.447Z,9.62
2022-11-05T16:52:54.049Z,9.60
2022-11-05T16:55:20.749Z,9.57
2022-11-05T16:57:54.491Z,9.63
2022-11-05T17:00:22.096Z,9.56
2022-11-05T17:02:48.959Z,9.63
2022-11-05T17:05:25.262Z,9.54
2022-11-05T17:07:53.033Z,9.50
2022-11-05T17:10:21.449Z,9.51
2022-11-05T17:12:48.540Z,9.55
2022-11-05T17:15:18.989Z,9.53
2022-11-05T17:17:45.712Z,9.41
2022-11-05T17:20:21.408Z,9.59
2022-11-05T17:22:47.881Z,9.57
2022-11-05T17:25:14.397Z,9.57
2022-11-05T17:27:40.938Z,9.75
2022-11-05T17:30:09.308Z,9.62
2022-11-05T17:32:35.921Z,9.69
2022-11-05T17:35:02.415Z,9.72
2022-11-05T17:37:28.971Z,9.71
2022-11-05T17:39:55.769Z,9.69
2022-11-05T17:42:22.355Z,9.62
2022-11-05T17:44:48.838Z,9.64
2022-11-05T17:47:15.342Z,9.81
2022-11-05T17:49:41.909Z,9.67
2022-11-05T17:52:08.509Z,9.71
2022-11-05T17:54:35.058Z,9.77
2022-11-05T17:57:03.618Z,9.81
2022-11-05T17:59:30.625Z,9.78
2022-11-05T18:01:57.742Z,9.70
2022-11-05T18:04:24.450Z,9.85
2022-11-05T18:06:51.054Z,9.77
2022-11-05T18:09:17.818Z,9.73
2022-11-05T18:11:44.356Z,9.60
2022-11-05T18:14:11.325Z,9.73
2022-11-05T18:16:38.302Z,9.72
2022-11-05T18:19:05.230Z,9.68
2022-11-05T18:21:31.920Z,9.73
2022-11-05T18:23:58.465Z,9.68
2022-11-05T18:26:28.048Z,9.69
2022-11-05T18:28:54.558Z,9.58
2022-11-05T18:31:21.941Z,9.68
2022-11-05T18:33:50.033Z,9.74
2022-11-05T18:36:27.598Z,9.69
2022-11-05T18:38:54.417Z,9.72
2022-11-05T18:41:21.632Z,9.67
2022-11-05T18:43:48.174Z,9.58
2022-11-05T18:46:36.103Z,9.63
2022-11-05T18:49:01.595Z,9.61
2022-11-05T18:51:28.388Z,9.62
2022-11-05T18:53:55.448Z,9.72
2022-11-05T18:56:22.332Z,9.55
2022-11-05T18:58:49.732Z,9.56
2022-11-05T19:01:22.911Z,9.51
2022-11-05T19:03:51.307Z,9.41
2022-11-05T19:06:18.572Z,9.44
2022-11-05T19:08:45.177Z,9.41
2022-11-05T19:11:15.195Z,9.51
2022-11-05T19:13:42.264Z,9.30
2022-11-05T19:16:10.838Z,9.38
2022-11-05T19:18:37.854Z,9.33
2022-11-05T19:21:09.151Z,9.39
2022-11-05T19:23:39.029Z,9.45
2022-11-05T19:26:15.922Z,9.38
2022-11-05T19:28:43.013Z,9.38
2022-11-05T19:31:15.237Z,9.43
2022-11-05T19:33:43.314Z,9.39
2022-11-05T19:36:11.586Z,9.36
2022-11-05T19:38:38.298Z,9.23
2022-11-05T19:41:10.704Z,9.28
2022-11-05T19:43:38.834Z,9.27
2022-11-05T19:46:10.407Z,9.27
2022-11-05T19:48:37.705Z,9.13
2022-11-05T19:51:09.344Z,9.16
2022-11-05T19:53:39.554Z,9.16
2022-11-05T19:56:08.140Z,9.05
2022-11-05T19:58:34.633Z,9.13
2022-11-05T20:01:01.503Z,9.07
2022-11-05T20:03:28.444Z,9.06
2022-11-05T20:05:54.978Z,9.03
2022-11-05T20:08:21.511Z,9.04
2022-11-05T20:10:53.695Z,9.04
2022-11-05T20:13:20.204Z,9.00
2022-11-05T20:15:46.805Z,8.94
2022-11-05T20:18:13.945Z,8.97
2022-11-05T20:20:41.763Z,8.99
2022-11-05T20:23:08.309Z,8.94
2022-11-05T20:25:34.945Z,8.98
2022-11-05T20:28:01.784Z,9.01
2022-11-05T20:30:28.418Z,9.02
2022-11-05T20:32:55.718Z,9.03
2022-11-05T20:35:23.184Z,8.99
2022-11-05T20:37:53.753Z,8.81
2022-11-05T20:40:20.800Z,8.93
2022-11-05T20:42:47.349Z,8.88
2022-11-05T20:45:13.904Z,8.80
2022-11-05T20:47:40.405Z,8.87
2022-11-05T20:50:07.863Z,8.86
2022-11-05T20:52:34.415Z,8.89
2022-11-05T20:55:02.238Z,8.81
2022-11-05T20:57:28.904Z,8.87
2022-11-05T20:59:55.490Z,8.96
2022-11-05T21:02:22.086Z,9.03
2022-11-05T21:04:48.740Z,8.94
2022-11-05T21:07:15.210Z,8.95
2022-11-05T21:09:41.721Z,8.86
2022-11-05T21:12:10.779Z,8.95
2022-11-05T21:14:42.336Z,8.89
2022-11-05T21:17:11.575Z,8.89
2022-11-05T21:19:38.514Z,8.94
2022-11-05T21:22:06.197Z,9.05
2022-11-05T21:24:33.736Z,9.08
2022-11-05T21:27:00.331Z,9.13
2022-11-05T21:29:27.109Z,9.18
2022-11-05T21:31:53.860Z,9.20
2022-11-05T21:34:20.440Z,9.17
2022-11-05T21:36:47.338Z,9.17
2022-11-05T21:39:14.082Z,9.23
2022-11-05T21:41:40.784Z,9.14
2022-11-05T21:44:07.331Z,9.25
2022-11-05T21:46:34.115Z,9.24
2022-11-05T21:49:00.685Z,9.27
2022-11-05T21:51:45.486Z,9.32
2022-11-05T21:54:30.531Z,9.21
2022-11-05T21:57:16.335Z,9.28
2022-11-05T21:59:48.720Z,9.26
2022-11-05T22:02:21.143Z,9.31
2022-11-05T22:04:50.883Z,9.25
2022-11-05T22:07:20.873Z,9.31
2022-11-05T22:09:47.420Z,9.38
2022-11-05T22:12:14.630Z,9.35
2022-11-05T22:14:41.610Z,9.35
2022-11-05T22:17:09.454Z,9.33
2022-11-05T22:19:36.487Z,9.22
2022-11-05T22:22:04.935Z,9.25
2022-11-05T22:24:32.039Z,9.23
2022-11-05T22:26:59.952Z,9.23
2022-11-05T22:29:27.274Z,9.15
2022-11-05T22:31:54.545Z,9.22
2022-11-05T22:34:21.359Z,9.24
2022-11-05T22:36:47.877Z,9.29
2022-11-05T22:39:14.929Z,9.27
2022-11-05T22:41:41.538Z,9.37
2022-11-05T22:44:10.327Z,9.31
2022-11-05T22:46:38.400Z,9.25
2022-11-05T22:49:06.388Z,9.26
2022-11-05T22:51:35.214Z,9.27
2022-11-05T22:54:02.666Z,9.27
2022-11-05T22:56:32.080Z,9.25
2022-11-05T22:58:59.207Z,9.28
2022-11-05T23:01:26.478Z,9.27
2022-11-05T23:03:55.165Z,9.32
2022-11-05T23:06:45.868Z,9.29
2022-11-05T23:09:43.525Z,9.28
2022-11-05T23:12:28.384Z,9.27
2022-11-05T23:14:57.313Z,9.21
2022-11-05T23:17:43.565Z,9.09
2022-11-05T23:20:35.314Z,9.21
2022-11-05T23:23:20.679Z,9.17
2022-11-05T23:25:47.460Z,9.13
2022-11-05T23:28:15.162Z,9.15
2022-11-05T23:31:02.640Z,9.13
2022-11-05T23:33:33.171Z,9.13
2022-11-05T23:36:18.655Z,9.16
2022-11-05T23:38:45.281Z,9.20
2022-11-05T23:41:30.256Z,9.10
2022-11-05T23:44:15.479Z,9.19
2022-11-05T23:47:00.441Z,9.17
2022-11-05T23:49:28.032Z,9.10
2022-11-05T23:51:54.544Z,9.16
2022-11-05T23:54:21.900Z,9.21
2022-11-05T23:56:48.411Z,9.20
2022-11-05T23:59:14.885Z,9.16
